sensor_id;sensor_type;location;lat;lon;timestamp;temperature;humidity
5723;DHT22;2886;49.722;8.612;2024-01-07T00:02:14;5.00;99.90
5723;DHT22;2886;49.722;8.612;2024-01-07T00:04:41;5.00;99.90
5723;DHT22;2886;49.722;8.612;2024-01-07T00:07:06;4.90;99.90
5723;DHT22;2886;49.722;8.612;2024-01-07T00:09:32;5.00;99.90
5723;DHT22;2886;49.722;8.612;2024-01-07T00:11:58;4.90;99.90
5723;DHT22;2886;49.722;8.612;2024-01-07T00:14:24;4.90;99.90
5723;DHT22;2886;49.722;8.612;2024-01-07T00:16:49;4.90;99.90
5723;DHT22;2886;49.722;8.612;2024-01-07T00:19:16;4.80;99.90
5723;DHT22;2886;49.722;8.612;2024-01-07T00:21:41;4.80;99.90
5723;DHT22;2886;49.722;8.612;2024-01-07T00:24:07;4.80;99.90
5723;DHT22;2886;49.722;8.612;2024-01-07T00:26:32;4.80;99.90
5723;DHT22;2886;49.722;8.612;2024-01-07T00:28:58;4.80;99.90
5723;DHT22;2886;49.722;8.612;2024-01-07T00:31:24;4.80;99.90
5723;DHT22;2886;49.722;8.612;2024-01-07T00:33:49;4.80;99.90
5723;DHT22;2886;49.722;8.612;2024-01-07T00:36:15;4.80;99.90
5723;DHT22;2886;49.722;8.612;2024-01-07T00:38:40;4.70;99.90
5723;DHT22;2886;49.722;8.612;2024-01-07T00:41:06;4.70;99.90
5723;DHT22;2886;49.722;8.612;2024-01-07T00:43:31;4.80;99.90
5723;DHT22;2886;49.722;8.612;2024-01-07T00:45:57;4.80;99.90
5723;DHT22;2886;49.722;8.612;2024-01-07T00:48:23;4.80;99.90
5723;DHT22;2886;49.722;8.612;2024-01-07T00:50:48;4.80;99.90
5723;DHT22;2886;49.722;8.612;2024-01-07T00:53:14;4.80;99.90
5723;DHT22;2886;49.722;8.612;2024-01-07T00:55:39;4.80;99.90
5723;DHT22;2886;49.722;8.612;2024-01-07T00:58:05;4.80;99.90
5723;DHT22;2886;49.722;8.612;2024-01-07T01:00:30;4.90;99.90
5723;DHT22;2886;49.722;8.612;2024-01-07T01:02:56;4.80;99.90
5723;DHT22;2886;49.722;8.612;2024-01-07T01:05:22;4.90;99.90
5723;DHT22;2886;49.722;8.612;2024-01-07T01:07:47;4.90;99.90
5723;DHT22;2886;49.722;8.612;2024-01-07T01:10:13;4.90;99.90
5723;DHT22;2886;49.722;8.612;2024-01-07T01:12:43;4.90;99.90
5723;DHT22;2886;49.722;8.612;2024-01-07T01:15:09;4.90;99.90
5723;DHT22;2886;49.722;8.612;2024-01-07T01:17:34;4.90;99.90
5723;DHT22;2886;49.722;8.612;2024-01-07T01:20:00;4.90;99.90
5723;DHT22;2886;49.722;8.612;2024-01-07T01:22:26;4.90;99.90
5723;DHT22;2886;49.722;8.612;2024-01-07T01:24:52;4.90;99.90
5723;DHT22;2886;49.722;8.612;2024-01-07T01:27:19;4.90;99.90
5723;DHT22;2886;49.722;8.612;2024-01-07T01:29:44;4.90;99.90
5723;DHT22;2886;49.722;8.612;2024-01-07T01:32:10;4.90;99.90
5723;DHT22;2886;49.722;8.612;2024-01-07T01:34:36;4.90;99.90
5723;DHT22;2886;49.722;8.612;2024-01-07T01:37:02;4.90;99.90
5723;DHT22;2886;49.722;8.612;2024-01-07T01:39:28;4.90;99.90
5723;DHT22;2886;49.722;8.612;2024-01-07T01:41:55;4.90;99.90
5723;DHT22;2886;49.722;8.612;2024-01-07T01:44:21;4.90;99.90
5723;DHT22;2886;49.722;8.612;2024-01-07T01:46:48;4.90;99.90
5723;DHT22;2886;49.722;8.612;2024-01-07T01:49:14;4.90;99.90
5723;DHT22;2886;49.722;8.612;2024-01-07T01:51:40;4.90;99.90
5723;DHT22;2886;49.722;8.612;2024-01-07T01:54:05;4.90;99.90
5723;DHT22;2886;49.722;8.612;2024-01-07T01:56:32;4.80;99.90
5723;DHT22;2886;49.722;8.612;2024-01-07T01:58:59;4.90;99.90
5723;DHT22;2886;49.722;8.612;2024-01-07T02:01:25;4.80;99.90
5723;DHT22;2886;49.722;8.612;2024-01-07T02:03:51;4.80;99.90
5723;DHT22;2886;49.722;8.612;2024-01-07T02:06:19;4.80;99.90
5723;DHT22;2886;49.722;8.612;2024-01-07T02:08:46;4.90;99.90
5723;DHT22;2886;49.722;8.612;2024-01-07T02:11:16;4.90;99.90
5723;DHT22;2886;49.722;8.612;2024-01-07T02:13:41;4.90;99.90
5723;DHT22;2886;49.722;8.612;2024-01-07T02:16:07;4.80;99.90
5723;DHT22;2886;49.722;8.612;2024-01-07T02:18:33;4.80;99.90
5723;DHT22;2886;49.722;8.612;2024-01-07T02:20:59;4.80;99.90
5723;DHT22;2886;49.722;8.612;2024-01-07T02:23:24;4.80;99.90
5723;DHT22;2886;49.722;8.612;2024-01-07T02:25:50;4.80;99.90
5723;DHT22;2886;49.722;8.612;2024-01-07T02:28:15;4.70;99.90
5723;DHT22;2886;49.722;8.612;2024-01-07T02:30:41;4.70;99.90
5723;DHT22;2886;49.722;8.612;2024-01-07T02:33:07;4.70;99.90
5723;DHT22;2886;49.722;8.612;2024-01-07T02:35:32;4.70;99.90
5723;DHT22;2886;49.722;8.612;2024-01-07T02:37:58;4.70;99.90
5723;DHT22;2886;49.722;8.612;2024-01-07T02:40:23;4.70;99.90
5723;DHT22;2886;49.722;8.612;2024-01-07T02:42:49;4.70;99.90
5723;DHT22;2886;49.722;8.612;2024-01-07T02:45:15;4.70;99.90
5723;DHT22;2886;49.722;8.612;2024-01-07T02:47:40;4.50;99.90
5723;DHT22;2886;49.722;8.612;2024-01-07T02:50:06;4.60;99.90
5723;DHT22;2886;49.722;8.612;2024-01-07T02:52:32;4.60;99.90
5723;DHT22;2886;49.722;8.612;2024-01-07T02:54:58;4.50;99.90
5723;DHT22;2886;49.722;8.612;2024-01-07T02:57:24;4.50;99.90
5723;DHT22;2886;49.722;8.612;2024-01-07T02:59:50;4.50;99.90
5723;DHT22;2886;49.722;8.612;2024-01-07T03:02:16;4.50;99.90
5723;DHT22;2886;49.722;8.612;2024-01-07T03:04:42;4.50;99.90
5723;DHT22;2886;49.722;8.612;2024-01-07T03:07:08;4.50;99.90
5723;DHT22;2886;49.722;8.612;2024-01-07T03:09:33;4.50;99.90
5723;DHT22;2886;49.722;8.612;2024-01-07T03:11:59;4.50;99.90
5723;DHT22;2886;49.722;8.612;2024-01-07T03:14:25;4.50;99.90
5723;DHT22;2886;49.722;8.612;2024-01-07T03:16:52;4.50;99.90
5723;DHT22;2886;49.722;8.612;2024-01-07T03:19:18;4.50;99.90
5723;DHT22;2886;49.722;8.612;2024-01-07T03:21:43;4.50;99.90
5723;DHT22;2886;49.722;8.612;2024-01-07T03:24:09;4.50;99.90
5723;DHT22;2886;49.722;8.612;2024-01-07T03:26:36;4.50;99.90
5723;DHT22;2886;49.722;8.612;2024-01-07T03:29:01;4.50;99.90
5723;DHT22;2886;49.722;8.612;2024-01-07T03:31:28;4.60;99.90
5723;DHT22;2886;49.722;8.612;2024-01-07T03:33:54;4.50;99.90
5723;DHT22;2886;49.722;8.612;2024-01-07T03:36:20;4.50;99.90
5723;DHT22;2886;49.722;8.612;2024-01-07T03:38:45;4.40;99.90
5723;DHT22;2886;49.722;8.612;2024-01-07T03:41:20;4.40;99.90
5723;DHT22;2886;49.722;8.612;2024-01-07T03:43:46;4.40;99.90
5723;DHT22;2886;49.722;8.612;2024-01-07T03:46:12;4.50;99.90
5723;DHT22;2886;49.722;8.612;2024-01-07T03:48:38;4.40;99.90
5723;DHT22;2886;49.722;8.612;2024-01-07T03:51:04;4.40;99.90
5723;DHT22;2886;49.722;8.612;2024-01-07T03:53:30;4.40;99.90
5723;DHT22;2886;49.722;8.612;2024-01-07T03:55:55;4.30;99.90
5723;DHT22;2886;49.722;8.612;2024-01-07T03:58:21;4.30;99.90
5723;DHT22;2886;49.722;8.612;2024-01-07T04:00:46;4.30;99.90
5723;DHT22;2886;49.722;8.612;2024-01-07T04:03:12;4.40;99.90
5723;DHT22;2886;49.722;8.612;2024-01-07T04:05:37;4.30;99.90
5723;DHT22;2886;49.722;8.612;2024-01-07T04:08:03;4.30;99.90
5723;DHT22;2886;49.722;8.612;2024-01-07T04:10:29;4.30;99.90
5723;DHT22;2886;49.722;8.612;2024-01-07T04:12:55;4.30;99.90
5723;DHT22;2886;49.722;8.612;2024-01-07T04:15:21;4.30;99.90
5723;DHT22;2886;49.722;8.612;2024-01-07T04:17:46;4.40;99.90
5723;DHT22;2886;49.722;8.612;2024-01-07T04:20:15;4.40;99.90
5723;DHT22;2886;49.722;8.612;2024-01-07T04:22:41;4.40;99.90
5723;DHT22;2886;49.722;8.612;2024-01-07T04:25:06;4.30;99.90
5723;DHT22;2886;49.722;8.612;2024-01-07T04:27:37;4.30;99.90
5723;DHT22;2886;49.722;8.612;2024-01-07T04:30:04;4.30;99.90
5723;DHT22;2886;49.722;8.612;2024-01-07T04:32:30;4.40;99.90
5723;DHT22;2886;49.722;8.612;2024-01-07T04:34:55;4.30;99.90
5723;DHT22;2886;49.722;8.612;2024-01-07T04:37:23;4.40;99.90
5723;DHT22;2886;49.722;8.612;2024-01-07T04:39:49;4.30;99.90
5723;DHT22;2886;49.722;8.612;2024-01-07T04:42:15;4.30;99.90
5723;DHT22;2886;49.722;8.612;2024-01-07T04:44:40;4.40;99.90
5723;DHT22;2886;49.722;8.612;2024-01-07T04:47:26;4.40;99.90
5723;DHT22;2886;49.722;8.612;2024-01-07T04:49:52;4.40;99.90
5723;DHT22;2886;49.722;8.612;2024-01-07T04:52:18;4.40;99.90
5723;DHT22;2886;49.722;8.612;2024-01-07T04:54:44;4.40;99.90
5723;DHT22;2886;49.722;8.612;2024-01-07T04:57:09;4.40;99.90
5723;DHT22;2886;49.722;8.612;2024-01-07T04:59:35;4.40;99.90
5723;DHT22;2886;49.722;8.612;2024-01-07T05:02:01;4.40;99.90
5723;DHT22;2886;49.722;8.612;2024-01-07T05:04:26;4.40;99.90
5723;DHT22;2886;49.722;8.612;2024-01-07T05:06:52;4.40;99.90
5723;DHT22;2886;49.722;8.612;2024-01-07T05:09:17;4.40;99.90
5723;DHT22;2886;49.722;8.612;2024-01-07T05:11:43;4.40;99.90
5723;DHT22;2886;49.722;8.612;2024-01-07T05:14:09;4.40;99.90
5723;DHT22;2886;49.722;8.612;2024-01-07T05:16:35;4.40;99.90
5723;DHT22;2886;49.722;8.612;2024-01-07T05:19:01;4.40;99.90
5723;DHT22;2886;49.722;8.612;2024-01-07T05:21:27;4.40;99.90
5723;DHT22;2886;49.722;8.612;2024-01-07T05:23:52;4.40;99.90
5723;DHT22;2886;49.722;8.612;2024-01-07T05:26:18;4.40;99.90
5723;DHT22;2886;49.722;8.612;2024-01-07T05:28:43;4.50;99.90
5723;DHT22;2886;49.722;8.612;2024-01-07T05:31:16;4.50;99.90
5723;DHT22;2886;49.722;8.612;2024-01-07T05:33:43;4.50;99.90
5723;DHT22;2886;49.722;8.612;2024-01-07T05:36:09;4.40;99.90
5723;DHT22;2886;49.722;8.612;2024-01-07T05:38:34;4.50;99.90
5723;DHT22;2886;49.722;8.612;2024-01-07T05:41:00;4.40;99.90
5723;DHT22;2886;49.722;8.612;2024-01-07T05:43:26;4.40;99.90
5723;DHT22;2886;49.722;8.612;2024-01-07T05:45:51;4.40;99.90
5723;DHT22;2886;49.722;8.612;2024-01-07T05:48:17;4.40;99.90
5723;DHT22;2886;49.722;8.612;2024-01-07T05:50:42;4.40;99.90
5723;DHT22;2886;49.722;8.612;2024-01-07T05:53:08;4.40;99.90
5723;DHT22;2886;49.722;8.612;2024-01-07T05:55:35;4.40;99.90
5723;DHT22;2886;49.722;8.612;2024-01-07T05:58:01;4.40;99.90
5723;DHT22;2886;49.722;8.612;2024-01-07T06:00:26;4.40;99.90
5723;DHT22;2886;49.722;8.612;2024-01-07T06:02:52;4.50;99.90
5723;DHT22;2886;49.722;8.612;2024-01-07T06:05:17;4.50;99.90
5723;DHT22;2886;49.722;8.612;2024-01-07T06:07:43;4.50;99.90
5723;DHT22;2886;49.722;8.612;2024-01-07T06:10:09;4.50;99.90
5723;DHT22;2886;49.722;8.612;2024-01-07T06:12:34;4.50;99.90
5723;DHT22;2886;49.722;8.612;2024-01-07T06:15:00;4.50;99.90
5723;DHT22;2886;49.722;8.612;2024-01-07T06:17:25;4.50;99.90
5723;DHT22;2886;49.722;8.612;2024-01-07T06:19:51;4.40;99.90
5723;DHT22;2886;49.722;8.612;2024-01-07T06:22:16;4.50;99.90
5723;DHT22;2886;49.722;8.612;2024-01-07T06:24:42;4.50;99.90
5723;DHT22;2886;49.722;8.612;2024-01-07T06:27:08;4.50;99.90
5723;DHT22;2886;49.722;8.612;2024-01-07T06:29:33;4.50;99.90
5723;DHT22;2886;49.722;8.612;2024-01-07T06:31:59;4.50;99.90
5723;DHT22;2886;49.722;8.612;2024-01-07T06:34:25;4.50;99.90
5723;DHT22;2886;49.722;8.612;2024-01-07T06:36:50;4.50;99.90
5723;DHT22;2886;49.722;8.612;2024-01-07T06:39:17;4.50;99.90
5723;DHT22;2886;49.722;8.612;2024-01-07T06:41:43;4.50;99.90
5723;DHT22;2886;49.722;8.612;2024-01-07T06:44:08;4.50;99.90
5723;DHT22;2886;49.722;8.612;2024-01-07T06:46:35;4.40;99.90
5723;DHT22;2886;49.722;8.612;2024-01-07T06:49:00;4.50;99.90
5723;DHT22;2886;49.722;8.612;2024-01-07T06:51:27;4.40;99.90
5723;DHT22;2886;49.722;8.612;2024-01-07T06:53:52;4.40;99.90
5723;DHT22;2886;49.722;8.612;2024-01-07T06:56:18;4.50;99.90
5723;DHT22;2886;49.722;8.612;2024-01-07T06:58:44;4.50;99.90
5723;DHT22;2886;49.722;8.612;2024-01-07T07:01:09;4.40;99.90
5723;DHT22;2886;49.722;8.612;2024-01-07T07:03:35;4.40;99.90
5723;DHT22;2886;49.722;8.612;2024-01-07T07:06:01;4.40;99.90
5723;DHT22;2886;49.722;8.612;2024-01-07T07:08:26;4.40;99.90
5723;DHT22;2886;49.722;8.612;2024-01-07T07:10:52;4.40;99.90
5723;DHT22;2886;49.722;8.612;2024-01-07T07:13:17;4.40;99.90
5723;DHT22;2886;49.722;8.612;2024-01-07T07:15:43;4.40;99.90
5723;DHT22;2886;49.722;8.612;2024-01-07T07:18:09;4.40;99.90
5723;DHT22;2886;49.722;8.612;2024-01-07T07:20:34;4.40;99.90
5723;DHT22;2886;49.722;8.612;2024-01-07T07:23:00;4.40;99.90
5723;DHT22;2886;49.722;8.612;2024-01-07T07:25:25;4.40;99.90
5723;DHT22;2886;49.722;8.612;2024-01-07T07:27:51;4.30;99.90
5723;DHT22;2886;49.722;8.612;2024-01-07T07:30:17;4.20;99.90
5723;DHT22;2886;49.722;8.612;2024-01-07T07:32:43;4.30;99.90
5723;DHT22;2886;49.722;8.612;2024-01-07T07:35:09;4.20;99.90
5723;DHT22;2886;49.722;8.612;2024-01-07T07:37:35;4.20;99.90
5723;DHT22;2886;49.722;8.612;2024-01-07T07:40:01;4.20;99.90
5723;DHT22;2886;49.722;8.612;2024-01-07T07:42:28;4.20;99.90
5723;DHT22;2886;49.722;8.612;2024-01-07T07:44:53;4.20;99.90
5723;DHT22;2886;49.722;8.612;2024-01-07T07:47:19;4.20;99.90
5723;DHT22;2886;49.722;8.612;2024-01-07T07:49:46;4.20;99.90
5723;DHT22;2886;49.722;8.612;2024-01-07T07:52:11;4.20;99.90
5723;DHT22;2886;49.722;8.612;2024-01-07T07:54:39;4.10;99.90
5723;DHT22;2886;49.722;8.612;2024-01-07T07:57:05;4.10;99.90
5723;DHT22;2886;49.722;8.612;2024-01-07T07:59:31;4.00;99.90
5723;DHT22;2886;49.722;8.612;2024-01-07T08:01:56;4.00;99.90
5723;DHT22;2886;49.722;8.612;2024-01-07T08:04:22;4.00;99.90
5723;DHT22;2886;49.722;8.612;2024-01-07T08:06:48;4.00;99.90
5723;DHT22;2886;49.722;8.612;2024-01-07T08:09:13;3.90;99.90
5723;DHT22;2886;49.722;8.612;2024-01-07T08:11:39;3.90;99.90
5723;DHT22;2886;49.722;8.612;2024-01-07T08:14:05;3.90;99.90
5723;DHT22;2886;49.722;8.612;2024-01-07T08:16:31;4.00;99.90
5723;DHT22;2886;49.722;8.612;2024-01-07T08:18:57;4.00;99.90
5723;DHT22;2886;49.722;8.612;2024-01-07T08:21:23;4.00;99.90
5723;DHT22;2886;49.722;8.612;2024-01-07T08:23:49;3.80;99.90
5723;DHT22;2886;49.722;8.612;2024-01-07T08:26:20;4.00;99.90
5723;DHT22;2886;49.722;8.612;2024-01-07T08:28:46;3.90;99.90
5723;DHT22;2886;49.722;8.612;2024-01-07T08:31:12;3.90;99.90
5723;DHT22;2886;49.722;8.612;2024-01-07T08:33:37;3.90;99.90
5723;DHT22;2886;49.722;8.612;2024-01-07T08:36:03;3.90;99.90
5723;DHT22;2886;49.722;8.612;2024-01-07T08:38:30;3.90;99.90
5723;DHT22;2886;49.722;8.612;2024-01-07T08:40:55;3.90;99.90
5723;DHT22;2886;49.722;8.612;2024-01-07T08:43:21;3.80;99.90
5723;DHT22;2886;49.722;8.612;2024-01-07T08:45:46;3.90;99.90
5723;DHT22;2886;49.722;8.612;2024-01-07T08:48:12;3.90;99.90
5723;DHT22;2886;49.722;8.612;2024-01-07T08:50:38;3.80;99.90
5723;DHT22;2886;49.722;8.612;2024-01-07T08:53:04;3.80;99.90
5723;DHT22;2886;49.722;8.612;2024-01-07T08:55:30;3.90;99.90
5723;DHT22;2886;49.722;8.612;2024-01-07T08:57:56;3.80;99.90
5723;DHT22;2886;49.722;8.612;2024-01-07T09:00:21;3.80;99.90
5723;DHT22;2886;49.722;8.612;2024-01-07T09:02:51;3.70;99.90
5723;DHT22;2886;49.722;8.612;2024-01-07T09:05:17;3.70;99.90
5723;DHT22;2886;49.722;8.612;2024-01-07T09:07:43;3.70;99.90
5723;DHT22;2886;49.722;8.612;2024-01-07T09:10:09;3.70;99.90
5723;DHT22;2886;49.722;8.612;2024-01-07T09:12:39;3.70;99.90
5723;DHT22;2886;49.722;8.612;2024-01-07T09:15:05;3.70;99.90
5723;DHT22;2886;49.722;8.612;2024-01-07T09:17:37;3.60;99.90
5723;DHT22;2886;49.722;8.612;2024-01-07T09:20:04;3.70;99.90
5723;DHT22;2886;49.722;8.612;2024-01-07T09:22:32;3.70;99.90
5723;DHT22;2886;49.722;8.612;2024-01-07T09:24:58;3.60;99.90
5723;DHT22;2886;49.722;8.612;2024-01-07T09:27:23;3.60;99.90
5723;DHT22;2886;49.722;8.612;2024-01-07T09:29:49;3.60;99.90
5723;DHT22;2886;49.722;8.612;2024-01-07T09:32:14;3.50;99.90
5723;DHT22;2886;49.722;8.612;2024-01-07T09:34:40;3.50;99.90
5723;DHT22;2886;49.722;8.612;2024-01-07T09:37:06;3.60;99.90
5723;DHT22;2886;49.722;8.612;2024-01-07T09:39:31;3.60;99.90
5723;DHT22;2886;49.722;8.612;2024-01-07T09:41:57;3.60;99.90
5723;DHT22;2886;49.722;8.612;2024-01-07T09:44:23;3.60;99.90
5723;DHT22;2886;49.722;8.612;2024-01-07T09:46:49;3.60;99.90
5723;DHT22;2886;49.722;8.612;2024-01-07T09:49:17;3.60;99.90
5723;DHT22;2886;49.722;8.612;2024-01-07T09:51:45;3.50;99.90
5723;DHT22;2886;49.722;8.612;2024-01-07T09:54:11;3.60;99.90
5723;DHT22;2886;49.722;8.612;2024-01-07T09:56:45;3.60;99.90
5723;DHT22;2886;49.722;8.612;2024-01-07T09:59:15;3.50;99.90
5723;DHT22;2886;49.722;8.612;2024-01-07T10:01:41;3.40;99.90
5723;DHT22;2886;49.722;8.612;2024-01-07T10:04:07;3.50;99.90
5723;DHT22;2886;49.722;8.612;2024-01-07T10:06:33;3.40;99.90
5723;DHT22;2886;49.722;8.612;2024-01-07T10:08:58;3.50;99.90
5723;DHT22;2886;49.722;8.612;2024-01-07T10:11:24;3.60;99.90
5723;DHT22;2886;49.722;8.612;2024-01-07T10:13:50;3.60;99.90
5723;DHT22;2886;49.722;8.612;2024-01-07T10:16:18;3.60;99.90
5723;DHT22;2886;49.722;8.612;2024-01-07T10:18:44;3.50;99.90
5723;DHT22;2886;49.722;8.612;2024-01-07T10:21:09;3.30;99.90
5723;DHT22;2886;49.722;8.612;2024-01-07T10:23:35;3.40;99.90
5723;DHT22;2886;49.722;8.612;2024-01-07T10:26:00;3.50;99.90
5723;DHT22;2886;49.722;8.612;2024-01-07T10:28:28;3.50;99.90
5723;DHT22;2886;49.722;8.612;2024-01-07T10:30:53;3.40;99.90
5723;DHT22;2886;49.722;8.612;2024-01-07T10:33:19;3.50;99.90
5723;DHT22;2886;49.722;8.612;2024-01-07T10:35:52;3.40;99.90
5723;DHT22;2886;49.722;8.612;2024-01-07T10:38:20;3.60;99.90
5723;DHT22;2886;49.722;8.612;2024-01-07T10:40:47;3.60;99.90
5723;DHT22;2886;49.722;8.612;2024-01-07T10:43:15;3.50;99.90
5723;DHT22;2886;49.722;8.612;2024-01-07T10:45:44;3.60;99.90
5723;DHT22;2886;49.722;8.612;2024-01-07T10:48:13;3.50;99.90
5723;DHT22;2886;49.722;8.612;2024-01-07T10:50:40;3.40;99.90
5723;DHT22;2886;49.722;8.612;2024-01-07T10:53:07;3.40;99.90
5723;DHT22;2886;49.722;8.612;2024-01-07T10:55:37;3.40;99.90
5723;DHT22;2886;49.722;8.612;2024-01-07T10:58:05;3.30;99.90
5723;DHT22;2886;49.722;8.612;2024-01-07T11:00:31;3.40;99.90
5723;DHT22;2886;49.722;8.612;2024-01-07T11:05:52;3.40;99.90
5723;DHT22;2886;49.722;8.612;2024-01-07T11:08:32;3.40;99.90
5723;DHT22;2886;49.722;8.612;2024-01-07T11:11:05;3.30;99.90
5723;DHT22;2886;49.722;8.612;2024-01-07T11:13:32;3.20;99.90
5723;DHT22;2886;49.722;8.612;2024-01-07T11:16:01;3.30;99.90
5723;DHT22;2886;49.722;8.612;2024-01-07T11:18:27;3.40;99.90
5723;DHT22;2886;49.722;8.612;2024-01-07T11:21:00;3.40;99.90
5723;DHT22;2886;49.722;8.612;2024-01-07T11:26:06;3.30;99.90
5723;DHT22;2886;49.722;8.612;2024-01-07T11:28:54;3.50;99.90
5723;DHT22;2886;49.722;8.612;2024-01-07T11:34:08;3.70;99.90
5723;DHT22;2886;49.722;8.612;2024-01-07T11:36:37;3.70;99.90
5723;DHT22;2886;49.722;8.612;2024-01-07T11:39:04;3.70;99.90
5723;DHT22;2886;49.722;8.612;2024-01-07T11:41:33;3.80;99.90
5723;DHT22;2886;49.722;8.612;2024-01-07T11:43:59;3.70;99.90
5723;DHT22;2886;49.722;8.612;2024-01-07T11:46:26;3.80;99.90
5723;DHT22;2886;49.722;8.612;2024-01-07T11:48:57;3.80;99.90
5723;DHT22;2886;49.722;8.612;2024-01-07T11:51:28;3.90;99.90
5723;DHT22;2886;49.722;8.612;2024-01-07T11:53:54;3.90;99.90
5723;DHT22;2886;49.722;8.612;2024-01-07T11:56:19;3.80;99.90
5723;DHT22;2886;49.722;8.612;2024-01-07T11:58:46;3.80;99.90
5723;DHT22;2886;49.722;8.612;2024-01-07T12:01:14;3.80;99.90
5723;DHT22;2886;49.722;8.612;2024-01-07T12:03:43;3.90;99.90
5723;DHT22;2886;49.722;8.612;2024-01-07T12:06:09;3.80;99.90
5723;DHT22;2886;49.722;8.612;2024-01-07T12:08:38;3.80;99.90
5723;DHT22;2886;49.722;8.612;2024-01-07T12:11:05;3.80;99.90
5723;DHT22;2886;49.722;8.612;2024-01-07T12:13:30;3.80;99.90
5723;DHT22;2886;49.722;8.612;2024-01-07T12:15:56;3.80;99.90
5723;DHT22;2886;49.722;8.612;2024-01-07T12:18:22;3.70;99.90
5723;DHT22;2886;49.722;8.612;2024-01-07T12:21:00;3.70;99.90
5723;DHT22;2886;49.722;8.612;2024-01-07T12:23:26;3.60;99.90
5723;DHT22;2886;49.722;8.612;2024-01-07T12:25:53;3.50;99.90
5723;DHT22;2886;49.722;8.612;2024-01-07T12:28:18;3.60;99.90
5723;DHT22;2886;49.722;8.612;2024-01-07T12:30:45;3.50;99.90
5723;DHT22;2886;49.722;8.612;2024-01-07T12:33:19;3.40;99.90
5723;DHT22;2886;49.722;8.612;2024-01-07T12:35:46;3.40;99.90
5723;DHT22;2886;49.722;8.612;2024-01-07T12:38:12;3.30;99.90
5723;DHT22;2886;49.722;8.612;2024-01-07T12:40:38;3.20;99.90
5723;DHT22;2886;49.722;8.612;2024-01-07T12:43:05;3.30;99.90
5723;DHT22;2886;49.722;8.612;2024-01-07T12:45:32;3.30;99.90
5723;DHT22;2886;49.722;8.612;2024-01-07T12:47:58;3.20;99.90
5723;DHT22;2886;49.722;8.612;2024-01-07T12:50:27;3.30;99.90
5723;DHT22;2886;49.722;8.612;2024-01-07T12:52:55;3.30;99.90
5723;DHT22;2886;49.722;8.612;2024-01-07T12:55:22;3.40;99.90
5723;DHT22;2886;49.722;8.612;2024-01-07T12:57:47;3.40;99.90
5723;DHT22;2886;49.722;8.612;2024-01-07T13:00:13;3.20;99.90
5723;DHT22;2886;49.722;8.612;2024-01-07T13:02:39;3.20;99.90
5723;DHT22;2886;49.722;8.612;2024-01-07T13:05:06;3.30;99.90
5723;DHT22;2886;49.722;8.612;2024-01-07T13:07:32;3.20;99.90
5723;DHT22;2886;49.722;8.612;2024-01-07T13:09:58;3.10;99.90
5723;DHT22;2886;49.722;8.612;2024-01-07T13:12:24;3.10;99.90
5723;DHT22;2886;49.722;8.612;2024-01-07T13:14:50;3.00;99.90
5723;DHT22;2886;49.722;8.612;2024-01-07T13:17:15;3.00;99.90
5723;DHT22;2886;49.722;8.612;2024-01-07T13:19:41;3.10;99.90
5723;DHT22;2886;49.722;8.612;2024-01-07T13:22:07;3.10;99.90
5723;DHT22;2886;49.722;8.612;2024-01-07T13:24:33;3.10;99.90
5723;DHT22;2886;49.722;8.612;2024-01-07T13:26:59;3.20;99.90
5723;DHT22;2886;49.722;8.612;2024-01-07T13:29:24;3.30;99.90
5723;DHT22;2886;49.722;8.612;2024-01-07T13:31:50;3.10;99.90
5723;DHT22;2886;49.722;8.612;2024-01-07T13:34:16;3.10;99.90
5723;DHT22;2886;49.722;8.612;2024-01-07T13:36:46;3.10;99.90
5723;DHT22;2886;49.722;8.612;2024-01-07T13:39:12;3.10;99.90
5723;DHT22;2886;49.722;8.612;2024-01-07T13:41:41;3.20;99.90
5723;DHT22;2886;49.722;8.612;2024-01-07T13:44:06;3.30;99.90
5723;DHT22;2886;49.722;8.612;2024-01-07T13:46:32;3.20;99.90
5723;DHT22;2886;49.722;8.612;2024-01-07T13:48:59;3.10;99.90
5723;DHT22;2886;49.722;8.612;2024-01-07T13:51:25;3.20;99.90
5723;DHT22;2886;49.722;8.612;2024-01-07T13:53:51;3.10;99.90
5723;DHT22;2886;49.722;8.612;2024-01-07T13:56:17;3.10;99.90
5723;DHT22;2886;49.722;8.612;2024-01-07T13:58:43;3.20;99.90
5723;DHT22;2886;49.722;8.612;2024-01-07T14:01:12;3.20;99.90
5723;DHT22;2886;49.722;8.612;2024-01-07T14:03:38;3.20;99.90
5723;DHT22;2886;49.722;8.612;2024-01-07T14:06:03;3.20;99.90
5723;DHT22;2886;49.722;8.612;2024-01-07T14:08:29;3.10;99.90
5723;DHT22;2886;49.722;8.612;2024-01-07T14:10:55;3.00;99.90
5723;DHT22;2886;49.722;8.612;2024-01-07T14:13:20;3.10;99.90
5723;DHT22;2886;49.722;8.612;2024-01-07T14:15:46;3.10;99.90
5723;DHT22;2886;49.722;8.612;2024-01-07T14:18:12;3.00;99.90
5723;DHT22;2886;49.722;8.612;2024-01-07T14:20:41;2.80;99.90
5723;DHT22;2886;49.722;8.612;2024-01-07T14:23:08;2.80;99.90
5723;DHT22;2886;49.722;8.612;2024-01-07T14:25:35;2.80;99.90
5723;DHT22;2886;49.722;8.612;2024-01-07T14:28:00;2.70;99.90
5723;DHT22;2886;49.722;8.612;2024-01-07T14:30:26;2.70;99.90
5723;DHT22;2886;49.722;8.612;2024-01-07T14:32:54;2.70;99.90
5723;DHT22;2886;49.722;8.612;2024-01-07T14:35:19;2.60;99.90
5723;DHT22;2886;49.722;8.612;2024-01-07T14:37:47;2.50;99.90
5723;DHT22;2886;49.722;8.612;2024-01-07T14:40:13;2.50;99.90
5723;DHT22;2886;49.722;8.612;2024-01-07T14:42:39;2.40;99.90
5723;DHT22;2886;49.722;8.612;2024-01-07T14:45:05;2.30;99.90
5723;DHT22;2886;49.722;8.612;2024-01-07T14:47:31;2.30;99.90
5723;DHT22;2886;49.722;8.612;2024-01-07T14:49:57;2.20;99.90
5723;DHT22;2886;49.722;8.612;2024-01-07T14:52:22;2.20;99.90
5723;DHT22;2886;49.722;8.612;2024-01-07T14:54:48;2.10;99.90
5723;DHT22;2886;49.722;8.612;2024-01-07T14:57:13;2.10;99.90
5723;DHT22;2886;49.722;8.612;2024-01-07T14:59:39;2.10;99.90
5723;DHT22;2886;49.722;8.612;2024-01-07T15:02:05;2.00;99.90
5723;DHT22;2886;49.722;8.612;2024-01-07T15:04:30;2.10;99.90
5723;DHT22;2886;49.722;8.612;2024-01-07T15:06:57;2.00;99.90
5723;DHT22;2886;49.722;8.612;2024-01-07T15:09:24;2.00;99.30
5723;DHT22;2886;49.722;8.612;2024-01-07T15:11:49;1.80;98.30
5723;DHT22;2886;49.722;8.612;2024-01-07T15:14:16;1.90;99.50
5723;DHT22;2886;49.722;8.612;2024-01-07T15:16:42;1.90;99.50
5723;DHT22;2886;49.722;8.612;2024-01-07T15:19:08;1.90;99.70
5723;DHT22;2886;49.722;8.612;2024-01-07T15:21:33;1.90;99.30
5723;DHT22;2886;49.722;8.612;2024-01-07T15:23:59;1.90;98.90
5723;DHT22;2886;49.722;8.612;2024-01-07T15:26:24;1.90;99.50
5723;DHT22;2886;49.722;8.612;2024-01-07T15:28:50;1.80;99.00
5723;DHT22;2886;49.722;8.612;2024-01-07T15:31:15;1.70;97.80
5723;DHT22;2886;49.722;8.612;2024-01-07T15:33:41;1.60;97.70
5723;DHT22;2886;49.722;8.612;2024-01-07T15:36:07;1.60;96.90
5723;DHT22;2886;49.722;8.612;2024-01-07T15:38:33;1.60;97.50
5723;DHT22;2886;49.722;8.612;2024-01-07T15:40:58;1.50;96.00
5723;DHT22;2886;49.722;8.612;2024-01-07T15:43:24;1.40;96.30
5723;DHT22;2886;49.722;8.612;2024-01-07T15:45:50;1.40;96.00
5723;DHT22;2886;49.722;8.612;2024-01-07T15:48:15;1.30;95.30
5723;DHT22;2886;49.722;8.612;2024-01-07T15:50:41;1.20;95.60
5723;DHT22;2886;49.722;8.612;2024-01-07T15:53:07;1.30;95.80
5723;DHT22;2886;49.722;8.612;2024-01-07T15:55:33;1.20;96.10
5723;DHT22;2886;49.722;8.612;2024-01-07T15:57:58;1.20;95.90
5723;DHT22;2886;49.722;8.612;2024-01-07T16:00:24;1.20;95.50
5723;DHT22;2886;49.722;8.612;2024-01-07T16:02:49;1.10;95.00
5723;DHT22;2886;49.722;8.612;2024-01-07T16:05:15;1.10;95.60
5723;DHT22;2886;49.722;8.612;2024-01-07T16:07:42;1.10;94.70
5723;DHT22;2886;49.722;8.612;2024-01-07T16:10:09;1.00;93.40
5723;DHT22;2886;49.722;8.612;2024-01-07T16:12:34;1.10;93.60
5723;DHT22;2886;49.722;8.612;2024-01-07T16:15:01;1.10;93.40
5723;DHT22;2886;49.722;8.612;2024-01-07T16:17:27;1.00;93.50
5723;DHT22;2886;49.722;8.612;2024-01-07T16:19:53;1.00;92.60